Custer, Custer County Airport (KCUT)

NameCuster County Airport
CityCuster
CountryUnited States
ICAOKCUT
IATA
Altitude1707 m
CoordinatesGoogle Map
Live Air TrafficLiveATC.net
METARKCUT 180053Z AUTO 00000KT 10SM OVC048 M01/M07 A2980 RMK AO2 SLP120 T10061067
2019-01-18 00:53:00 Wind: North (0°) 0 m/s - Visibility: 16093.4 m - Temperature: -1 °C - Dew point: -7 °C - Humidity: 64.1% - Pressure: 1009.14 hPa
Statistics

The table below shows the detailed information of all flights to/from Custer, Custer County Airport (KCUT).